createdAt,value
2023-02-02T00:02:04.598Z,22.42
2023-02-02T00:04:39.897Z,23.38
2023-02-02T00:07:10.185Z,23.83
2023-02-02T00:09:40.239Z,22.52
2023-02-02T00:12:10.428Z,25.20
2023-02-02T00:14:41.069Z,26.02
2023-02-02T00:17:13.662Z,27.17
2023-02-02T00:19:46.910Z,25.73
2023-02-02T00:22:17.389Z,21.92
2023-02-02T00:24:47.605Z,25.83
2023-02-02T00:27:17.863Z,26.60
2023-02-02T00:29:48.209Z,29.73
2023-02-02T00:32:18.351Z,27.13
2023-02-02T00:34:51.373Z,29.53
2023-02-02T00:37:21.624Z,27.15
2023-02-02T00:39:52.027Z,25.27
2023-02-02T00:42:22.002Z,31.70
2023-02-02T00:45:04.427Z,30.95
2023-02-02T00:47:34.498Z,31.80
2023-02-02T00:50:08.018Z,31.30
2023-02-02T00:52:38.181Z,32.08
2023-02-02T00:55:11.972Z,30.48
2023-02-02T00:57:44.463Z,29.67
2023-02-02T01:00:17.644Z,31.80
2023-02-02T01:02:48.702Z,32.50
2023-02-02T01:05:23.564Z,32.05
2023-02-02T01:07:53.860Z,42.03
2023-02-02T01:10:23.949Z,49.97
2023-02-02T01:12:54.268Z,95.23
2023-02-02T01:15:24.612Z,83.40
2023-02-02T01:17:54.891Z,64.07
2023-02-02T01:20:28.027Z,36.33
2023-02-02T01:22:58.055Z,43.38
2023-02-02T01:25:28.106Z,37.03
2023-02-02T01:27:58.524Z,41.58
2023-02-02T01:30:29.728Z,37.03
2023-02-02T01:33:00.106Z,33.85
2023-02-02T01:35:33.627Z,30.58
2023-02-02T01:38:04.054Z,36.53
2023-02-02T01:40:34.082Z,33.10
2023-02-02T01:43:04.302Z,37.10
2023-02-02T01:45:34.518Z,34.75
2023-02-02T01:48:05.297Z,36.78
2023-02-02T01:50:38.620Z,36.67
2023-02-02T01:53:11.270Z,35.53
2023-02-02T01:55:44.079Z,32.20
2023-02-02T01:58:18.351Z,30.73
2023-02-02T02:00:48.742Z,29.92
2023-02-02T02:03:22.541Z,33.13
2023-02-02T02:05:59.315Z,32.28
2023-02-02T02:08:33.143Z,33.20
2023-02-02T02:11:03.269Z,27.65
2023-02-02T02:13:50.543Z,29.40
2023-02-02T02:16:30.453Z,30.35
2023-02-02T02:19:13.977Z,27.30
2023-02-02T02:22:20.350Z,30.50
2023-02-02T02:25:41.430Z,28.08
2023-02-02T02:28:41.428Z,26.98
2023-02-02T02:31:38.292Z,28.20
2023-02-02T02:34:15.515Z,27.95
2023-02-02T02:36:52.526Z,28.83
2023-02-02T02:39:28.643Z,26.48
2023-02-02T02:42:03.517Z,24.58
2023-02-02T02:44:36.884Z,27.33
2023-02-02T02:47:07.497Z,27.02
2023-02-02T02:49:45.261Z,30.88
2023-02-02T02:52:16.136Z,25.70
2023-02-02T02:54:52.692Z,25.20
2023-02-02T02:57:41.802Z,25.13
2023-02-02T03:00:25.150Z,28.65
2023-02-02T03:03:06.220Z,25.00
2023-02-02T03:08:27.879Z,28.15
2023-02-02T03:11:02.470Z,31.25
2023-02-02T03:13:34.436Z,32.63
2023-02-02T03:16:04.839Z,33.25
2023-02-02T03:18:36.284Z,33.20
2023-02-02T03:21:09.521Z,33.72
2023-02-02T03:23:39.605Z,33.13
2023-02-02T03:26:10.512Z,36.30
2023-02-02T03:31:11.018Z,30.50
2023-02-02T03:33:41.917Z,29.92
2023-02-02T03:36:14.885Z,30.88
2023-02-02T03:38:44.957Z,31.50
2023-02-02T03:41:15.389Z,32.27
2023-02-02T03:43:50.179Z,31.55
2023-02-02T03:46:20.285Z,27.52
2023-02-02T03:48:50.378Z,27.67
2023-02-02T03:51:23.434Z,30.00
2023-02-02T03:53:53.467Z,31.50
2023-02-02T03:56:23.815Z,29.63
2023-02-02T03:58:53.830Z,33.58
2023-02-02T04:01:30.732Z,37.03
2023-02-02T04:04:01.675Z,31.52
2023-02-02T04:09:04.550Z,33.65
2023-02-02T04:11:34.990Z,36.63
2023-02-02T04:14:05.099Z,32.45
2023-02-02T04:16:37.815Z,34.75
2023-02-02T04:19:08.729Z,38.97
2023-02-02T04:24:15.295Z,38.95
2023-02-02T04:26:46.155Z,41.45
2023-02-02T04:29:16.380Z,35.35
2023-02-02T04:31:46.718Z,34.45
2023-02-02T04:34:16.812Z,34.85
2023-02-02T04:36:49.521Z,32.38
2023-02-02T04:39:19.837Z,30.23
2023-02-02T04:41:49.914Z,29.63
2023-02-02T04:44:19.889Z,37.43
2023-02-02T04:46:49.937Z,35.17
2023-02-02T04:49:20.177Z,35.23
2023-02-02T04:51:53.346Z,38.25
2023-02-02T04:54:23.432Z,40.00
2023-02-02T04:56:54.725Z,40.87
2023-02-02T04:59:24.868Z,41.30
2023-02-02T05:01:54.994Z,39.10
2023-02-02T05:04:25.057Z,33.88
2023-02-02T05:06:57.705Z,34.25
2023-02-02T05:09:28.352Z,39.17
2023-02-02T05:11:58.468Z,35.83
2023-02-02T05:14:28.754Z,33.23
2023-02-02T05:16:58.872Z,35.75
2023-02-02T05:19:30.160Z,37.30
2023-02-02T05:22:02.948Z,36.95
2023-02-02T05:24:33.027Z,33.80
2023-02-02T05:27:03.573Z,40.58
2023-02-02T05:29:34.342Z,35.58
2023-02-02T05:32:04.520Z,29.92
2023-02-02T05:34:34.825Z,32.67
2023-02-02T05:37:08.093Z,37.30
2023-02-02T05:39:38.150Z,33.70
2023-02-02T05:42:08.351Z,39.45
2023-02-02T05:44:38.497Z,38.97
2023-02-02T05:47:09.563Z,33.05
2023-02-02T05:49:40.041Z,45.35
2023-02-02T05:52:18.585Z,43.78
2023-02-02T05:54:48.799Z,49.85
2023-02-02T05:57:19.096Z,47.70
2023-02-02T05:59:49.106Z,50.45
2023-02-02T06:02:19.205Z,44.90
2023-02-02T06:04:49.448Z,39.87
2023-02-02T06:07:22.086Z,37.92
2023-02-02T06:09:52.137Z,34.67
2023-02-02T06:12:22.484Z,32.47
2023-02-02T06:14:52.658Z,33.95
2023-02-02T06:17:23.230Z,35.10
2023-02-02T06:19:54.019Z,44.72
2023-02-02T06:22:27.041Z,44.33
2023-02-02T06:24:57.482Z,42.15
2023-02-02T06:27:28.243Z,50.97
2023-02-02T06:29:58.318Z,50.10
2023-02-02T06:32:28.721Z,51.57
2023-02-02T06:34:58.884Z,52.22
2023-02-02T06:37:31.736Z,58.83
2023-02-02T06:40:01.920Z,52.05
2023-02-02T06:42:32.279Z,46.70
2023-02-02T06:45:02.329Z,49.20
2023-02-02T06:47:32.595Z,46.17
2023-02-02T06:50:02.815Z,47.28
2023-02-02T06:52:35.711Z,46.45
2023-02-02T06:55:06.708Z,44.63
2023-02-02T07:00:07.396Z,47.83
2023-02-02T07:05:08.031Z,44.38
2023-02-02T07:07:40.892Z,41.72
2023-02-02T07:11:12.704Z,57.50
2023-02-02T07:13:02.175Z,63.63
2023-02-02T07:15:35.722Z,47.70
2023-02-02T07:18:06.158Z,33.50
2023-02-02T07:20:38.968Z,31.38
2023-02-02T07:23:11.708Z,28.13
2023-02-02T07:25:43.582Z,27.25
2023-02-02T07:28:14.089Z,28.92
2023-02-02T07:30:44.250Z,38.70
2023-02-02T07:33:14.339Z,36.67
2023-02-02T07:35:44.596Z,30.03
2023-02-02T07:38:17.997Z,33.72
2023-02-02T07:40:49.059Z,32.78
2023-02-02T07:45:49.970Z,37.30
2023-02-02T07:48:20.178Z,34.88
2023-02-02T07:50:50.522Z,30.60
2023-02-02T07:53:23.663Z,28.27
2023-02-02T07:55:53.682Z,28.52
2023-02-02T07:58:23.758Z,24.95
2023-02-02T08:00:53.858Z,27.13
2023-02-02T08:03:23.899Z,24.70
2023-02-02T08:05:54.060Z,25.55
2023-02-02T08:08:26.760Z,19.88
2023-02-02T08:10:57.737Z,17.77
2023-02-02T08:16:00.877Z,23.15
2023-02-02T08:18:30.962Z,23.30
2023-02-02T08:21:02.360Z,21.33
2023-02-02T08:23:36.760Z,18.45
2023-02-02T08:26:12.961Z,18.77
2023-02-02T08:28:44.184Z,20.77
2023-02-02T08:31:17.505Z,19.33
2023-02-02T08:33:48.127Z,20.35
2023-02-02T08:36:19.836Z,21.65
2023-02-02T08:38:53.707Z,20.15
2023-02-02T08:41:27.193Z,21.10
2023-02-02T08:43:57.258Z,22.30
2023-02-02T08:46:28.225Z,17.57
2023-02-02T08:51:28.400Z,17.30
2023-02-02T08:54:01.074Z,14.27
2023-02-02T08:56:31.164Z,14.27
2023-02-02T08:59:03.279Z,13.17
2023-02-02T09:01:34.651Z,12.90
2023-02-02T09:04:07.016Z,14.48
2023-02-02T09:06:38.880Z,14.70
2023-02-02T09:09:13.691Z,25.33
2023-02-02T09:11:44.105Z,20.80
2023-02-02T09:14:15.905Z,17.05
2023-02-02T09:16:46.089Z,14.95
2023-02-02T09:19:16.228Z,15.23
2023-02-02T09:21:46.372Z,15.13
2023-02-02T09:24:19.755Z,14.60
2023-02-02T09:26:50.069Z,18.45
2023-02-02T09:29:21.397Z,16.38
2023-02-02T09:31:51.724Z,19.60
2023-02-02T09:34:22.000Z,23.65
2023-02-02T09:36:52.430Z,16.02
2023-02-02T09:39:25.109Z,19.58
2023-02-02T09:42:29.202Z,28.52
2023-02-02T09:45:10.817Z,19.45
2023-02-02T09:47:56.648Z,41.70
2023-02-02T09:50:45.891Z,29.85
2023-02-02T09:53:30.140Z,29.67
2023-02-02T09:56:07.531Z,21.92
2023-02-02T09:58:43.126Z,13.77
2023-02-02T10:01:16.172Z,22.05
2023-02-02T10:03:58.012Z,24.75
2023-02-02T10:06:36.241Z,25.23
2023-02-02T10:09:26.604Z,18.92
2023-02-02T10:12:07.493Z,17.02
2023-02-02T10:14:46.345Z,25.42
2023-02-02T10:17:32.150Z,27.33
2023-02-02T10:20:09.558Z,22.80
2023-02-02T10:22:39.670Z,20.50
2023-02-02T10:25:15.351Z,18.50
2023-02-02T10:27:59.459Z,28.90
2023-02-02T10:30:39.931Z,28.45
2023-02-02T10:33:17.422Z,22.95
2023-02-02T10:35:55.778Z,16.42
2023-02-02T10:38:36.581Z,18.90
2023-02-02T10:41:15.998Z,13.02
2023-02-02T10:44:11.986Z,13.70
2023-02-02T10:46:46.532Z,11.88
2023-02-02T10:49:25.157Z,14.93
2023-02-02T10:52:00.995Z,12.50
2023-02-02T10:54:57.271Z,11.55
2023-02-02T10:57:50.346Z,11.05
2023-02-02T11:00:29.077Z,11.40
2023-02-02T11:03:00.527Z,11.25
2023-02-02T11:05:44.818Z,12.93
2023-02-02T11:08:17.669Z,11.10
2023-02-02T11:10:48.941Z,11.13
2023-02-02T11:13:30.454Z,13.93
2023-02-02T11:16:41.585Z,12.55
2023-02-02T11:19:34.774Z,10.88
2023-02-02T11:22:06.100Z,11.60
2023-02-02T11:24:44.761Z,10.43
2023-02-02T11:27:18.646Z,9.77
2023-02-02T11:29:51.132Z,11.82
2023-02-02T11:32:30.253Z,11.13
2023-02-02T11:35:33.254Z,9.43
2023-02-02T11:38:12.655Z,8.48
2023-02-02T11:40:46.554Z,10.10
2023-02-02T11:43:22.579Z,13.93
2023-02-02T11:46:02.367Z,21.77
2023-02-02T11:48:39.260Z,22.85
2023-02-02T11:51:11.036Z,20.63
2023-02-02T11:53:49.542Z,15.35
2023-02-02T11:56:25.249Z,13.05
2023-02-02T11:58:59.592Z,14.38
2023-02-02T12:01:31.368Z,14.55
2023-02-02T12:04:06.843Z,13.13
2023-02-02T12:06:40.487Z,14.70
2023-02-02T12:09:16.724Z,17.65
2023-02-02T12:11:59.699Z,13.65
2023-02-02T12:14:37.689Z,14.07
2023-02-02T12:17:23.783Z,11.45
2023-02-02T12:20:07.305Z,10.15
2023-02-02T12:22:58.505Z,7.57
2023-02-02T12:28:28.477Z,7.72
2023-02-02T12:31:06.385Z,7.00
2023-02-02T12:33:43.746Z,9.25
2023-02-02T12:36:27.742Z,10.60
2023-02-02T12:39:13.247Z,8.82
2023-02-02T12:42:07.183Z,8.50
2023-02-02T12:44:51.174Z,10.95
2023-02-02T12:47:28.868Z,10.63
2023-02-02T12:50:13.515Z,15.00
2023-02-02T12:52:58.065Z,25.27
2023-02-02T12:55:39.541Z,20.15
2023-02-02T12:58:21.795Z,17.52
2023-02-02T13:01:13.707Z,18.15
2023-02-02T13:04:16.559Z,17.88
2023-02-02T13:07:05.403Z,18.17
2023-02-02T13:09:48.615Z,16.58
2023-02-02T13:12:22.799Z,15.05
2023-02-02T13:14:57.993Z,14.30
2023-02-02T13:17:32.465Z,14.45
2023-02-02T13:20:06.565Z,14.07
2023-02-02T13:22:40.531Z,16.77
2023-02-02T13:25:23.614Z,18.30
2023-02-02T13:27:54.616Z,10.88
2023-02-02T13:30:34.331Z,13.85
2023-02-02T13:33:08.318Z,13.00
2023-02-02T13:35:45.144Z,16.02
2023-02-02T13:38:21.910Z,14.32
2023-02-02T13:40:57.965Z,19.77
2023-02-02T13:43:38.780Z,23.02
2023-02-02T13:46:32.502Z,24.10
2023-02-02T13:49:13.528Z,17.30
2023-02-02T13:55:13.514Z,8.75
2023-02-02T13:58:19.851Z,10.45
2023-02-02T14:00:53.136Z,11.63
2023-02-02T14:03:33.896Z,11.35
2023-02-02T14:06:13.744Z,17.20
2023-02-02T14:08:50.996Z,15.82
2023-02-02T14:11:25.989Z,15.18
2023-02-02T14:14:13.966Z,16.27
2023-02-02T14:16:53.484Z,16.50
2023-02-02T14:19:52.226Z,17.35
2023-02-02T14:22:38.833Z,18.33
2023-02-02T14:25:41.737Z,24.25
2023-02-02T14:28:14.072Z,22.40
2023-02-02T14:30:46.794Z,17.33
2023-02-02T14:33:47.780Z,17.45
2023-02-02T14:36:20.719Z,12.13
2023-02-02T14:39:03.628Z,10.82
2023-02-02T14:42:01.037Z,17.60
2023-02-02T14:44:31.841Z,24.67
2023-02-02T14:47:04.799Z,19.98
2023-02-02T14:49:38.587Z,21.73
2023-02-02T14:52:23.211Z,20.45
2023-02-02T14:54:53.346Z,13.52
2023-02-02T14:57:28.468Z,19.40
2023-02-02T15:00:01.596Z,22.70
2023-02-02T15:02:39.572Z,21.25
2023-02-02T15:05:41.924Z,17.67
2023-02-02T15:08:23.286Z,15.55
2023-02-02T15:11:25.555Z,16.83
2023-02-02T15:14:15.970Z,19.60
2023-02-02T15:16:47.181Z,15.63
2023-02-02T15:19:28.970Z,9.13
2023-02-02T15:22:02.414Z,9.52
2023-02-02T15:24:36.866Z,11.10
2023-02-02T15:27:09.025Z,11.60
2023-02-02T15:29:45.556Z,8.77
2023-02-02T15:32:20.623Z,11.20
2023-02-02T15:34:55.967Z,12.05
2023-02-02T15:37:32.047Z,13.02
2023-02-02T15:40:05.627Z,13.20
2023-02-02T15:42:55.912Z,10.48
2023-02-02T15:45:35.034Z,10.07
2023-02-02T15:48:12.215Z,9.40
2023-02-02T15:50:48.689Z,11.27
2023-02-02T15:53:23.323Z,23.38
2023-02-02T15:55:53.914Z,12.80
2023-02-02T15:58:30.615Z,12.25
2023-02-02T16:01:04.178Z,14.75
2023-02-02T16:03:41.405Z,11.00
2023-02-02T16:06:14.659Z,31.20
2023-02-02T16:08:45.123Z,29.80
2023-02-02T16:11:18.069Z,22.20
2023-02-02T16:14:01.957Z,22.52
2023-02-02T16:16:35.476Z,19.48
2023-02-02T16:19:15.034Z,13.32
2023-02-02T16:21:53.846Z,14.60
2023-02-02T16:24:29.115Z,15.35
2023-02-02T16:27:02.386Z,17.88
2023-02-02T16:29:33.088Z,14.98
2023-02-02T16:32:03.465Z,24.58
2023-02-02T16:34:49.057Z,15.93
2023-02-02T16:37:28.436Z,18.75
2023-02-02T16:39:59.515Z,16.52
2023-02-02T16:42:31.799Z,20.45
2023-02-02T16:45:03.007Z,24.02
2023-02-02T16:47:41.671Z,20.73
2023-02-02T16:50:29.593Z,25.23
2023-02-02T16:53:05.482Z,26.77
2023-02-02T16:55:50.076Z,31.45
2023-02-02T16:58:24.421Z,42.78
2023-02-02T17:01:14.097Z,24.52
2023-02-02T17:03:52.697Z,31.13
2023-02-02T17:06:41.830Z,23.27
2023-02-02T17:09:34.382Z,24.42
2023-02-02T17:12:09.367Z,17.95
2023-02-02T17:14:54.952Z,19.55
2023-02-02T17:17:25.194Z,16.33
2023-02-02T17:19:55.508Z,23.10
2023-02-02T17:22:28.090Z,17.75
2023-02-02T17:25:02.014Z,22.95
2023-02-02T17:27:34.694Z,16.30
2023-02-02T17:30:07.374Z,14.90
2023-02-02T17:32:37.705Z,13.60
2023-02-02T17:35:16.879Z,14.57
2023-02-02T17:37:47.352Z,13.18
2023-02-02T17:40:21.503Z,9.32
2023-02-02T17:42:53.925Z,9.48
2023-02-02T17:45:26.672Z,17.30
2023-02-02T17:47:56.967Z,12.05
2023-02-02T17:50:27.441Z,19.63
2023-02-02T17:52:57.833Z,26.15
2023-02-02T17:55:33.719Z,31.98
2023-02-02T17:58:03.985Z,42.35
2023-02-02T18:00:34.147Z,40.30
2023-02-02T18:03:13.048Z,39.63
2023-02-02T18:05:43.959Z,40.45
2023-02-02T18:08:15.221Z,39.17
2023-02-02T18:10:48.021Z,27.30
2023-02-02T18:13:19.743Z,23.08
2023-02-02T18:15:50.499Z,30.75
2023-02-02T18:18:20.526Z,18.70
2023-02-02T18:20:53.206Z,15.40
2023-02-02T18:23:24.721Z,15.38
2023-02-02T18:25:57.551Z,22.10
2023-02-02T18:28:27.555Z,22.27
2023-02-02T18:30:57.705Z,28.02
2023-02-02T18:33:28.089Z,21.98
2023-02-02T18:35:58.455Z,19.25
2023-02-02T18:38:28.658Z,27.13
2023-02-02T18:41:03.927Z,21.93
2023-02-02T18:43:34.103Z,16.80
2023-02-02T18:46:06.637Z,16.33
2023-02-02T18:48:36.819Z,21.67
2023-02-02T18:51:08.473Z,20.90
2023-02-02T18:53:38.739Z,24.80
2023-02-02T18:56:13.833Z,26.75
2023-02-02T18:58:44.583Z,31.33
2023-02-02T19:01:16.854Z,28.95
2023-02-02T19:03:51.853Z,24.73
2023-02-02T19:06:35.151Z,23.88
2023-02-02T19:09:10.557Z,27.75
2023-02-02T19:11:48.619Z,27.08
2023-02-02T19:14:20.749Z,28.25
2023-02-02T19:16:52.720Z,28.45
2023-02-02T19:19:29.292Z,23.10
2023-02-02T19:22:01.003Z,23.90
2023-02-02T19:24:42.707Z,21.27
2023-02-02T19:27:20.176Z,23.02
2023-02-02T19:29:52.909Z,22.13
2023-02-02T19:32:25.182Z,19.92
2023-02-02T19:34:57.371Z,16.83
2023-02-02T19:37:29.531Z,22.25
2023-02-02T19:40:17.719Z,19.42
2023-02-02T19:42:54.396Z,17.33
2023-02-02T19:45:28.416Z,16.08
2023-02-02T19:47:59.943Z,19.40
2023-02-02T19:50:32.396Z,19.35
2023-02-02T19:53:06.561Z,21.70
2023-02-02T19:55:39.442Z,24.98
2023-02-02T19:58:19.914Z,23.52
2023-02-02T20:00:51.265Z,20.80
2023-02-02T20:03:23.843Z,19.33
2023-02-02T20:05:55.838Z,19.00
2023-02-02T20:08:30.110Z,18.42
2023-02-02T20:11:03.836Z,25.75
2023-02-02T20:13:46.794Z,19.25
2023-02-02T20:16:21.203Z,29.42
2023-02-02T20:18:53.985Z,25.08
2023-02-02T20:21:31.391Z,25.00
2023-02-02T20:24:01.646Z,25.05
2023-02-02T20:26:37.093Z,22.63
2023-02-02T20:29:20.799Z,26.88
2023-02-02T20:31:55.837Z,25.10
2023-02-02T20:34:29.973Z,16.77
2023-02-02T20:37:02.820Z,15.90
2023-02-02T20:39:37.377Z,13.65
2023-02-02T20:42:07.935Z,14.70
2023-02-02T20:44:40.609Z,16.67
2023-02-02T20:47:10.971Z,19.17
2023-02-02T20:49:41.658Z,15.98
2023-02-02T20:52:18.360Z,25.20
2023-02-02T20:54:48.408Z,27.63
2023-02-02T20:57:18.903Z,21.60
2023-02-02T20:59:57.918Z,19.90
2023-02-02T21:02:29.902Z,18.02
2023-02-02T21:05:01.500Z,15.15
2023-02-02T21:07:32.680Z,15.85
2023-02-02T21:10:02.697Z,16.13
2023-02-02T21:12:33.166Z,15.40
2023-02-02T21:15:06.675Z,17.55
2023-02-02T21:17:36.710Z,19.38
2023-02-02T21:20:07.131Z,20.83
2023-02-02T21:22:37.361Z,18.52
2023-02-02T21:25:07.741Z,17.98
2023-02-02T21:27:41.208Z,14.30
2023-02-02T21:30:16.115Z,19.45
2023-02-02T21:32:46.098Z,15.90
2023-02-02T21:35:16.088Z,15.45
2023-02-02T21:37:50.578Z,14.15
2023-02-02T21:40:28.972Z,13.95
2023-02-02T21:43:01.867Z,15.18
2023-02-02T21:45:38.881Z,14.57
2023-02-02T21:48:10.751Z,17.40
2023-02-02T21:50:44.546Z,16.48
2023-02-02T21:53:22.009Z,15.35
2023-02-02T21:55:55.974Z,14.85
2023-02-02T21:58:28.441Z,16.10
2023-02-02T22:01:05.552Z,15.43
2023-02-02T22:03:38.062Z,18.02
2023-02-02T22:06:36.258Z,18.23
2023-02-02T22:09:18.343Z,15.63
2023-02-02T22:11:52.210Z,19.02
2023-02-02T22:14:25.176Z,14.10
2023-02-02T22:17:00.831Z,16.52
2023-02-02T22:19:36.747Z,13.88
2023-02-02T22:22:16.988Z,17.65
2023-02-02T22:24:49.309Z,20.52
2023-02-02T22:27:26.117Z,12.50
2023-02-02T22:30:00.487Z,11.27
2023-02-02T22:32:33.328Z,10.27
2023-02-02T22:35:03.317Z,11.25
2023-02-02T22:37:33.545Z,7.87
2023-02-02T22:40:03.610Z,10.63
2023-02-02T22:42:33.673Z,10.13
2023-02-02T22:45:03.673Z,11.30
2023-02-02T22:47:36.329Z,11.70
2023-02-02T22:50:06.644Z,10.95
2023-02-02T22:52:36.725Z,14.35
2023-02-02T22:55:06.927Z,12.43
2023-02-02T22:57:37.256Z,11.88
2023-02-02T23:00:10.680Z,10.45
2023-02-02T23:02:44.335Z,9.98
2023-02-02T23:05:16.860Z,10.45
2023-02-02T23:07:48.972Z,8.90
2023-02-02T23:10:21.113Z,7.82
2023-02-02T23:12:53.669Z,10.40
2023-02-02T23:15:24.042Z,7.35
2023-02-02T23:17:57.416Z,8.35
2023-02-02T23:20:28.093Z,10.07
2023-02-02T23:25:28.341Z,10.93
2023-02-02T23:27:58.482Z,9.73
2023-02-02T23:30:28.841Z,8.98
2023-02-02T23:33:01.573Z,6.38
2023-02-02T23:35:31.622Z,8.00
2023-02-02T23:38:01.680Z,8.60
2023-02-02T23:40:31.849Z,5.75
2023-02-02T23:43:01.939Z,5.93
2023-02-02T23:45:32.263Z,10.27
2023-02-02T23:48:05.025Z,9.18
2023-02-02T23:50:38.062Z,7.15
2023-02-02T23:53:08.500Z,7.72
2023-02-02T23:55:39.335Z,7.80
2023-02-02T23:58:09.606Z,9.15
